createdAt,value
2023-03-15T00:00:26.937Z,132.98
2023-03-15T00:03:16.007Z,125.75
2023-03-15T00:06:04.205Z,117.22
2023-03-15T00:08:46.911Z,116.53
2023-03-15T00:11:31.927Z,135.43
2023-03-15T00:14:20.883Z,131.55
2023-03-15T00:17:09.230Z,126.85
2023-03-15T00:19:51.968Z,125.13
2023-03-15T00:22:40.136Z,120.28
2023-03-15T00:25:23.252Z,119.88
2023-03-15T00:28:13.213Z,120.95
2023-03-15T00:30:56.063Z,116.03
2023-03-15T00:33:45.332Z,128.07
2023-03-15T00:36:30.906Z,126.00
2023-03-15T00:39:20.340Z,137.43
2023-03-15T00:42:04.862Z,128.80
2023-03-15T00:44:59.768Z,119.20
2023-03-15T00:47:48.871Z,113.53
2023-03-15T00:50:31.259Z,111.47
2023-03-15T00:53:19.930Z,109.10
2023-03-15T00:56:02.934Z,108.00
2023-03-15T00:58:51.926Z,117.53
2023-03-15T01:01:37.234Z,123.20
2023-03-15T01:04:25.921Z,126.28
2023-03-15T01:07:08.626Z,117.57
2023-03-15T01:09:59.872Z,124.15
2023-03-15T01:12:49.948Z,117.72
2023-03-15T01:15:38.190Z,124.53
2023-03-15T01:18:20.911Z,122.35
2023-03-15T01:21:03.123Z,119.47
2023-03-15T01:23:52.952Z,118.68
2023-03-15T01:26:41.168Z,108.80
2023-03-15T01:29:25.900Z,111.97
2023-03-15T01:32:10.217Z,114.05
2023-03-15T01:34:58.863Z,116.80
2023-03-15T01:37:49.112Z,101.82
2023-03-15T01:40:31.177Z,117.40
2023-03-15T01:43:28.903Z,113.25
2023-03-15T01:46:26.295Z,105.07
2023-03-15T01:49:38.948Z,109.35
2023-03-15T01:55:26.920Z,110.07
2023-03-15T01:58:20.228Z,142.65
2023-03-15T02:01:10.992Z,122.57
2023-03-15T02:06:55.903Z,109.78
2023-03-15T02:10:09.936Z,103.70
2023-03-15T02:13:00.577Z,100.88
2023-03-15T02:15:53.863Z,114.57
2023-03-15T02:18:43.245Z,109.53
2023-03-15T02:21:43.940Z,105.68
2023-03-15T02:24:45.048Z,105.60
2023-03-15T02:27:38.993Z,108.65
2023-03-15T02:30:23.196Z,107.50
2023-03-15T02:33:15.863Z,101.03
2023-03-15T02:35:58.264Z,104.10
2023-03-15T02:38:46.940Z,105.70
2023-03-15T02:41:46.290Z,97.43
2023-03-15T02:44:40.878Z,100.82
2023-03-15T02:47:35.247Z,93.55
2023-03-15T02:50:17.861Z,92.40
2023-03-15T02:53:08.161Z,89.10
2023-03-15T02:55:50.917Z,98.70
2023-03-15T02:58:39.215Z,99.25
2023-03-15T03:01:24.028Z,101.40
2023-03-15T03:04:13.146Z,103.07
2023-03-15T03:06:55.972Z,102.55
2023-03-15T03:09:46.484Z,98.63
2023-03-15T03:12:36.912Z,82.60
2023-03-15T03:15:25.158Z,79.15
2023-03-15T03:18:07.928Z,88.32
2023-03-15T03:23:41.276Z,86.07
2023-03-15T03:26:29.944Z,91.45
2023-03-15T03:29:19.840Z,83.60
2023-03-15T03:32:04.056Z,91.35
2023-03-15T03:34:55.882Z,79.57
2023-03-15T03:37:38.391Z,84.85
2023-03-15T03:40:37.930Z,84.65
2023-03-15T03:43:27.082Z,70.75
2023-03-15T03:46:16.010Z,77.78
2023-03-15T03:49:01.378Z,65.28
2023-03-15T03:51:49.828Z,76.78
2023-03-15T03:54:33.356Z,72.97
2023-03-15T03:57:23.159Z,76.13
2023-03-15T04:00:12.854Z,73.28
2023-03-15T04:02:55.965Z,72.43
2023-03-15T04:05:47.219Z,61.83
2023-03-15T04:08:33.847Z,70.75
2023-03-15T04:11:26.570Z,77.85
2023-03-15T04:14:13.574Z,72.00
2023-03-15T04:17:06.045Z,66.53
2023-03-15T04:19:51.258Z,67.22
2023-03-15T04:22:45.801Z,58.20
2023-03-15T04:25:36.853Z,59.67
2023-03-15T04:28:51.986Z,58.17
2023-03-15T04:31:54.766Z,60.30
2023-03-15T04:35:07.860Z,53.63
2023-03-15T04:38:12.794Z,41.40
2023-03-15T04:41:19.704Z,43.55
2023-03-15T04:44:22.624Z,48.22
2023-03-15T04:47:29.933Z,63.15
2023-03-15T04:50:31.819Z,55.08
2023-03-15T04:53:37.012Z,55.40
2023-03-15T04:56:47.078Z,51.58
2023-03-15T04:59:50.234Z,49.72
2023-03-15T05:03:02.990Z,42.10
2023-03-15T05:06:05.247Z,43.25
2023-03-15T05:09:22.560Z,41.97
2023-03-15T05:12:44.941Z,32.80
2023-03-15T05:15:55.834Z,31.48
2023-03-15T05:18:59.157Z,33.38
2023-03-15T05:22:18.149Z,35.83
2023-03-15T05:25:32.046Z,37.80
2023-03-15T05:28:55.153Z,30.10
2023-03-15T05:31:47.053Z,34.88
2023-03-15T05:35:03.077Z,37.00
2023-03-15T05:38:16.864Z,23.98
2023-03-15T05:41:30.092Z,38.22
2023-03-15T05:44:44.012Z,27.67
2023-03-15T05:47:55.001Z,24.38
2023-03-15T05:50:47.110Z,23.20
2023-03-15T05:53:56.349Z,29.15
2023-03-15T05:56:54.558Z,28.92
2023-03-15T06:00:23.757Z,31.02
2023-03-15T06:03:15.836Z,24.90
2023-03-15T06:06:16.232Z,24.63
2023-03-15T06:08:58.832Z,25.50
2023-03-15T06:11:47.734Z,20.50
2023-03-15T06:14:29.811Z,25.98
2023-03-15T06:17:22.696Z,22.42
2023-03-15T06:20:05.814Z,25.83
2023-03-15T06:22:55.689Z,32.45
2023-03-15T06:25:48.966Z,30.50
2023-03-15T06:28:37.679Z,29.73
2023-03-15T06:31:28.699Z,25.85
2023-03-15T06:34:21.804Z,28.00
2023-03-15T06:37:03.621Z,38.85
2023-03-15T06:39:52.226Z,42.90
2023-03-15T06:42:34.632Z,32.42
2023-03-15T06:45:32.479Z,51.85
2023-03-15T06:48:27.637Z,32.42
2023-03-15T06:51:10.061Z,23.27
2023-03-15T06:53:58.613Z,46.30
2023-03-15T06:56:42.705Z,29.30
2023-03-15T06:59:31.658Z,244.07
2023-03-15T07:02:32.730Z,34.10
2023-03-15T07:05:20.835Z,86.35
2023-03-15T07:08:02.674Z,162.75
2023-03-15T07:10:51.228Z,31.70
2023-03-15T07:13:32.968Z,34.85
2023-03-15T07:16:20.904Z,26.92
2023-03-15T07:19:03.667Z,18.90
2023-03-15T07:24:35.579Z,40.08
2023-03-15T07:27:19.304Z,62.63
2023-03-15T07:30:08.674Z,35.90
2023-03-15T07:32:50.712Z,31.45
2023-03-15T07:35:39.683Z,27.38
2023-03-15T07:38:32.792Z,32.15
2023-03-15T07:41:15.639Z,46.22
2023-03-15T07:44:05.813Z,35.40
2023-03-15T07:46:54.692Z,37.53
2023-03-15T07:49:42.918Z,22.90
2023-03-15T07:52:24.617Z,29.23
2023-03-15T07:55:13.950Z,32.28
2023-03-15T07:57:55.695Z,37.28
2023-03-15T08:00:43.867Z,34.03
2023-03-15T08:03:25.734Z,28.98
2023-03-15T08:06:07.816Z,25.83
2023-03-15T08:08:56.622Z,29.58
2023-03-15T08:11:45.726Z,22.70
2023-03-15T08:14:27.973Z,22.60
2023-03-15T08:17:16.951Z,24.92
2023-03-15T08:19:58.678Z,25.60
2023-03-15T08:22:47.664Z,18.58
2023-03-15T08:25:32.008Z,24.13
2023-03-15T08:28:20.612Z,21.30
2023-03-15T08:31:09.710Z,25.75
2023-03-15T08:33:57.902Z,20.50
2023-03-15T08:36:39.725Z,24.63
2023-03-15T08:39:27.889Z,28.08
2023-03-15T08:42:09.625Z,24.33
2023-03-15T08:45:00.264Z,27.40
2023-03-15T08:47:42.711Z,25.95
2023-03-15T08:53:15.725Z,27.83
2023-03-15T08:55:57.966Z,28.33
2023-03-15T08:58:46.690Z,24.45
2023-03-15T09:01:35.580Z,23.80
2023-03-15T09:04:18.605Z,22.15
2023-03-15T09:09:49.575Z,26.00
2023-03-15T09:12:44.682Z,23.48
2023-03-15T09:15:32.755Z,36.10
2023-03-15T09:18:14.934Z,23.83
2023-03-15T09:20:57.778Z,23.15
2023-03-15T09:23:46.624Z,31.17
2023-03-15T09:26:34.834Z,23.38
2023-03-15T09:29:19.677Z,26.55
2023-03-15T09:32:09.631Z,29.55
2023-03-15T09:34:52.141Z,31.13
2023-03-15T09:37:40.686Z,23.52
2023-03-15T09:40:31.911Z,24.40
2023-03-15T09:43:21.570Z,30.05
2023-03-15T09:46:13.599Z,22.73
2023-03-15T09:49:56.499Z,32.33
2023-03-15T09:52:51.641Z,33.33
2023-03-15T09:55:34.792Z,28.15
2023-03-15T09:58:42.658Z,28.33
2023-03-15T10:01:25.947Z,25.85
2023-03-15T10:07:03.834Z,31.77
2023-03-15T10:09:53.695Z,39.17
2023-03-15T10:12:44.835Z,29.15
2023-03-15T10:15:52.740Z,27.00
2023-03-15T10:19:04.872Z,19.40
2023-03-15T10:22:20.993Z,26.88
2023-03-15T10:25:17.053Z,22.50
2023-03-15T10:28:37.638Z,23.45
2023-03-15T10:31:43.440Z,23.58
2023-03-15T10:34:33.091Z,23.00
2023-03-15T10:37:17.667Z,18.58
2023-03-15T10:40:11.088Z,21.67
2023-03-15T10:42:54.770Z,15.63
2023-03-15T10:45:43.842Z,18.70
2023-03-15T10:48:41.561Z,23.42
2023-03-15T10:51:36.806Z,17.05
2023-03-15T10:54:26.651Z,19.02
2023-03-15T10:57:23.873Z,16.17
2023-03-15T11:00:24.638Z,22.95
2023-03-15T11:03:22.884Z,18.88
2023-03-15T11:06:06.701Z,26.95
2023-03-15T11:08:55.544Z,25.85
2023-03-15T11:11:44.696Z,27.73
2023-03-15T11:14:41.833Z,26.52
2023-03-15T11:17:38.702Z,28.98
2023-03-15T11:20:37.824Z,22.40
2023-03-15T11:23:28.944Z,20.45
2023-03-15T11:26:33.486Z,23.50
2023-03-15T11:29:35.740Z,27.92
2023-03-15T11:32:40.679Z,24.60
2023-03-15T11:35:45.134Z,25.33
2023-03-15T11:38:45.752Z,22.27
2023-03-15T11:41:36.758Z,18.85
2023-03-15T11:44:35.320Z,22.55
2023-03-15T11:47:48.605Z,20.60
2023-03-15T11:50:38.172Z,26.50
2023-03-15T11:53:24.611Z,24.67
2023-03-15T11:56:26.414Z,18.50
2023-03-15T11:59:24.673Z,22.30
2023-03-15T12:02:14.898Z,30.42
2023-03-15T12:05:17.644Z,23.52
2023-03-15T12:08:17.039Z,23.37
2023-03-15T12:11:06.699Z,32.70
2023-03-15T12:14:04.668Z,24.45
2023-03-15T12:16:56.615Z,34.15
2023-03-15T12:19:44.819Z,23.48
2023-03-15T12:22:27.624Z,24.42
2023-03-15T12:25:54.104Z,30.63
2023-03-15T12:28:56.656Z,29.88
2023-03-15T12:32:11.824Z,27.05
2023-03-15T12:35:00.615Z,23.75
2023-03-15T12:37:54.415Z,32.53
2023-03-15T12:41:08.638Z,24.23
2023-03-15T12:43:58.845Z,23.33
2023-03-15T12:46:53.673Z,26.15
2023-03-15T12:49:45.847Z,25.65
2023-03-15T12:52:27.638Z,18.63
2023-03-15T12:55:25.867Z,24.98
2023-03-15T12:58:12.618Z,27.65
2023-03-15T13:01:01.887Z,36.40
2023-03-15T13:03:47.514Z,25.00
2023-03-15T13:07:08.254Z,34.83
2023-03-15T13:10:17.700Z,25.67
2023-03-15T13:13:15.784Z,33.85
2023-03-15T13:16:24.784Z,26.90
2023-03-15T13:19:28.829Z,34.03
2023-03-15T13:22:32.644Z,50.13
2023-03-15T13:25:27.887Z,32.35
2023-03-15T13:28:21.672Z,43.63
2023-03-15T13:31:18.782Z,25.10
2023-03-15T13:34:11.669Z,26.33
2023-03-15T13:37:06.884Z,32.47
2023-03-15T13:40:03.655Z,30.23
2023-03-15T13:42:52.876Z,23.80
2023-03-15T13:45:34.618Z,33.00
2023-03-15T13:48:23.071Z,25.67
2023-03-15T13:51:23.675Z,28.40
2023-03-15T13:54:14.876Z,29.38
2023-03-15T13:57:14.659Z,33.28
2023-03-15T14:00:09.666Z,24.80
2023-03-15T14:02:51.877Z,22.60
2023-03-15T14:05:49.710Z,22.63
2023-03-15T14:08:47.899Z,28.33
2023-03-15T14:11:45.580Z,30.73
2023-03-15T14:14:33.621Z,34.05
2023-03-15T14:17:37.694Z,24.63
2023-03-15T14:20:25.405Z,22.63
2023-03-15T14:23:17.604Z,30.48
2023-03-15T14:26:09.715Z,32.30
2023-03-15T14:29:05.974Z,38.15
2023-03-15T14:31:53.710Z,38.40
2023-03-15T14:34:44.635Z,41.70
2023-03-15T14:37:53.924Z,30.67
2023-03-15T14:40:45.672Z,25.70
2023-03-15T14:43:27.772Z,31.98
2023-03-15T14:46:16.701Z,31.73
2023-03-15T14:49:11.676Z,47.20
2023-03-15T14:52:12.839Z,48.60
2023-03-15T14:54:57.603Z,24.60
2023-03-15T14:57:41.478Z,38.80
2023-03-15T15:00:32.684Z,35.92
2023-03-15T15:03:44.023Z,37.85
2023-03-15T15:06:25.680Z,24.80
2023-03-15T15:09:13.881Z,37.67
2023-03-15T15:11:56.052Z,28.55
2023-03-15T15:14:43.886Z,39.20
2023-03-15T15:17:25.677Z,29.58
2023-03-15T15:20:16.380Z,35.85
2023-03-15T15:22:57.717Z,27.67
2023-03-15T15:25:46.838Z,25.73
2023-03-15T15:28:35.469Z,30.70
2023-03-15T15:31:27.916Z,29.60
2023-03-15T15:34:09.602Z,41.28
2023-03-15T15:36:58.024Z,35.67
2023-03-15T15:39:40.582Z,33.55
2023-03-15T15:42:29.638Z,28.98
2023-03-15T15:45:19.079Z,42.15
2023-03-15T15:48:14.167Z,34.92
2023-03-15T15:50:55.462Z,44.80
2023-03-15T15:53:46.651Z,42.92
2023-03-15T15:56:36.153Z,39.03
2023-03-15T15:59:27.603Z,29.25
2023-03-15T16:02:22.966Z,32.22
2023-03-15T16:05:11.610Z,44.65
2023-03-15T16:07:54.512Z,47.55
2023-03-15T16:10:44.648Z,33.65
2023-03-15T16:13:33.801Z,55.90
2023-03-15T16:16:23.057Z,43.00
2023-03-15T16:19:10.973Z,44.22
2023-03-15T16:21:57.667Z,41.22
2023-03-15T16:24:47.802Z,35.83
2023-03-15T16:27:41.569Z,41.10
2023-03-15T16:30:46.374Z,64.95
2023-03-15T16:33:38.623Z,88.68
2023-03-15T16:36:29.667Z,74.45
2023-03-15T16:39:11.901Z,46.92
2023-03-15T16:42:00.633Z,68.57
2023-03-15T16:44:44.674Z,44.60
2023-03-15T16:47:40.556Z,49.47
2023-03-15T16:50:27.924Z,44.65
2023-03-15T16:53:15.668Z,52.72
2023-03-15T16:56:03.845Z,36.15
2023-03-15T16:58:45.617Z,33.42
2023-03-15T17:01:37.183Z,28.48
2023-03-15T17:04:19.806Z,33.15
2023-03-15T17:07:08.094Z,25.58
2023-03-15T17:09:56.732Z,18.88
2023-03-15T17:12:49.631Z,21.30
2023-03-15T17:15:36.835Z,15.40
2023-03-15T17:18:31.933Z,25.48
2023-03-15T17:21:27.514Z,36.47
2023-03-15T17:24:20.762Z,21.83
2023-03-15T17:27:04.206Z,21.33
2023-03-15T17:32:34.903Z,15.35
2023-03-15T17:35:27.652Z,14.70
2023-03-15T17:38:22.605Z,15.60
2023-03-15T17:41:38.651Z,19.35
2023-03-15T17:44:20.759Z,14.75
2023-03-15T17:47:09.653Z,12.10
2023-03-15T17:50:04.627Z,9.15
2023-03-15T17:52:49.017Z,17.30
2023-03-15T17:55:42.601Z,11.68
2023-03-15T17:58:27.738Z,10.75
2023-03-15T18:01:20.837Z,17.58
2023-03-15T18:04:05.144Z,14.02
2023-03-15T18:06:53.737Z,8.73
2023-03-15T18:09:41.763Z,12.80
2023-03-15T18:12:25.588Z,9.85
2023-03-15T18:15:08.114Z,9.15
2023-03-15T18:17:56.640Z,15.07
2023-03-15T18:20:46.399Z,22.45
2023-03-15T18:23:27.711Z,14.00
2023-03-15T18:26:18.194Z,18.75
2023-03-15T18:28:59.566Z,18.20
2023-03-15T18:31:48.965Z,14.35
2023-03-15T18:34:30.639Z,15.80
2023-03-15T18:37:19.001Z,16.08
2023-03-15T18:40:01.859Z,17.30
2023-03-15T18:42:51.032Z,21.70
2023-03-15T18:45:38.657Z,17.55
2023-03-15T18:48:40.806Z,26.88
2023-03-15T18:51:32.698Z,15.15
2023-03-15T18:54:14.952Z,17.05
2023-03-15T18:57:03.726Z,19.85
2023-03-15T18:59:45.989Z,16.98
2023-03-15T19:02:34.655Z,13.90
2023-03-15T19:05:17.994Z,14.70
2023-03-15T19:08:06.632Z,17.55
2023-03-15T19:10:48.924Z,11.77
2023-03-15T19:13:37.635Z,17.70
2023-03-15T19:16:26.664Z,26.13
2023-03-15T19:19:14.872Z,16.35
2023-03-15T19:21:56.668Z,20.90
2023-03-15T19:24:44.910Z,14.52
2023-03-15T19:27:27.638Z,14.88
2023-03-15T19:30:21.733Z,20.73
2023-03-15T19:33:04.099Z,16.80
2023-03-15T19:35:52.649Z,11.43
2023-03-15T19:38:36.019Z,13.15
2023-03-15T19:41:24.942Z,12.80
2023-03-15T19:44:06.828Z,11.68
2023-03-15T19:46:55.650Z,10.35
2023-03-15T19:49:43.856Z,10.32
2023-03-15T19:52:25.661Z,11.63
2023-03-15T19:55:21.632Z,15.85
2023-03-15T19:58:03.645Z,13.00
2023-03-15T20:00:52.597Z,14.10
2023-03-15T20:03:40.953Z,11.73
2023-03-15T20:06:22.642Z,9.30
2023-03-15T20:09:12.131Z,14.25
2023-03-15T20:11:53.652Z,11.27
2023-03-15T20:14:42.603Z,8.30
2023-03-15T20:17:26.317Z,12.32
2023-03-15T20:20:18.684Z,9.55
2023-03-15T20:23:07.681Z,23.48
2023-03-15T20:25:51.004Z,8.30
2023-03-15T20:28:39.652Z,11.82
2023-03-15T20:31:29.843Z,9.15
2023-03-15T20:34:13.438Z,13.88
2023-03-15T20:37:03.194Z,12.52
2023-03-15T20:39:44.857Z,15.77
2023-03-15T20:42:33.645Z,8.75
2023-03-15T20:45:16.850Z,11.48
2023-03-15T20:48:06.246Z,8.23
2023-03-15T20:50:48.483Z,8.05
2023-03-15T20:53:36.671Z,7.57
2023-03-15T20:56:19.028Z,10.80
2023-03-15T20:59:07.551Z,10.32
2023-03-15T21:01:49.857Z,12.40
2023-03-15T21:04:38.754Z,10.15
2023-03-15T21:07:21.034Z,9.15
2023-03-15T21:10:09.617Z,16.70
2023-03-15T21:12:51.853Z,11.50
2023-03-15T21:15:41.630Z,15.90
2023-03-15T21:18:31.649Z,12.82
2023-03-15T21:21:13.777Z,8.70
2023-03-15T21:24:02.692Z,9.50
2023-03-15T21:26:47.730Z,9.20
2023-03-15T21:29:36.664Z,16.33
2023-03-15T21:32:24.941Z,11.77
2023-03-15T21:35:06.681Z,8.18
2023-03-15T21:37:56.919Z,10.20
2023-03-15T21:40:38.618Z,14.25
2023-03-15T21:43:27.923Z,12.85
2023-03-15T21:46:15.669Z,16.08
2023-03-15T21:49:10.648Z,7.70
2023-03-15T21:52:00.045Z,11.10
2023-03-15T21:54:42.836Z,10.73
2023-03-15T21:57:32.569Z,9.25
2023-03-15T22:00:27.610Z,9.60
2023-03-15T22:03:17.572Z,8.75
2023-03-15T22:05:59.644Z,17.40
2023-03-15T22:08:48.891Z,10.23
2023-03-15T22:11:30.582Z,9.80
2023-03-15T22:14:12.592Z,12.18
2023-03-15T22:17:01.684Z,17.92
2023-03-15T22:19:43.517Z,19.98
2023-03-15T22:22:32.587Z,19.58
2023-03-15T22:25:21.970Z,13.93
2023-03-15T22:28:03.570Z,12.40
2023-03-15T22:30:54.835Z,12.82
2023-03-15T22:33:36.552Z,10.57
2023-03-15T22:36:18.638Z,11.88
2023-03-15T22:39:09.984Z,13.98
2023-03-15T22:41:51.502Z,10.25
2023-03-15T22:44:39.557Z,16.38
2023-03-15T22:47:28.592Z,14.32
2023-03-15T22:50:21.706Z,8.30
2023-03-15T22:53:03.613Z,12.47
2023-03-15T22:55:51.776Z,16.90
2023-03-15T22:58:34.551Z,12.32
2023-03-15T23:01:16.669Z,15.77
2023-03-15T23:04:05.585Z,12.52
2023-03-15T23:06:47.509Z,15.85
2023-03-15T23:09:35.811Z,15.88
2023-03-15T23:12:33.777Z,20.23
2023-03-15T23:15:20.556Z,19.42
2023-03-15T23:18:02.603Z,19.13
2023-03-15T23:20:51.549Z,21.08
2023-03-15T23:23:40.630Z,17.27
2023-03-15T23:26:26.020Z,20.02
2023-03-15T23:29:23.617Z,23.13
2023-03-15T23:32:05.784Z,24.33
2023-03-15T23:34:54.660Z,23.10
2023-03-15T23:37:36.848Z,18.50
2023-03-15T23:40:26.909Z,29.02
2023-03-15T23:43:10.013Z,37.33
2023-03-15T23:46:03.672Z,24.67
2023-03-15T23:48:59.462Z,26.67
2023-03-15T23:51:47.644Z,32.47
2023-03-15T23:54:29.723Z,34.13
2023-03-15T23:57:20.588Z,27.65
